sensor_id;sensor_type;location;lat;lon;timestamp;pressure;altitude;pressure_sealevel;temperature;humidity
68179;BME280;69812;42.632;23.440;2023-11-21T00:14:38;94979.16;;;-0.29;100.00
68179;BME280;69812;42.632;23.440;2023-11-21T00:17:04;94968.69;;;-0.39;100.00
68179;BME280;69812;42.632;23.440;2023-11-21T00:19:31;94970.63;;;-0.27;100.00
68179;BME280;69812;42.632;23.440;2023-11-21T00:21:56;94980.41;;;-0.57;100.00
68179;BME280;69812;42.632;23.440;2023-11-21T00:24:23;94978.81;;;-0.77;100.00
68179;BME280;69812;42.632;23.440;2023-11-21T00:26:50;94967.91;;;-0.96;100.00
68179;BME280;69812;42.632;23.440;2023-11-21T00:29:15;94970.44;;;-0.96;100.00
68179;BME280;69812;42.632;23.440;2023-11-21T00:31:43;94979.00;;;-1.00;100.00
68179;BME280;69812;42.632;23.440;2023-11-21T00:34:08;94978.59;;;-1.10;100.00
68179;BME280;69812;42.632;23.440;2023-11-21T00:36:34;94965.53;;;-1.18;100.00
68179;BME280;69812;42.632;23.440;2023-11-21T00:39:00;94960.03;;;-1.08;100.00
68179;BME280;69812;42.632;23.440;2023-11-21T00:41:26;94963.41;;;-1.09;100.00
68179;BME280;69812;42.632;23.440;2023-11-21T00:43:53;94940.06;;;-1.31;100.00
68179;BME280;69812;42.632;23.440;2023-11-21T00:46:19;94950.72;;;-1.26;100.00
68179;BME280;69812;42.632;23.440;2023-11-21T00:48:44;94956.31;;;-1.19;100.00
68179;BME280;69812;42.632;23.440;2023-11-21T00:51:12;94966.59;;;-1.24;100.00
68179;BME280;69812;42.632;23.440;2023-11-21T00:53:38;94955.38;;;-1.36;100.00
68179;BME280;69812;42.632;23.440;2023-11-21T00:56:04;94980.94;;;-1.26;100.00
68179;BME280;69812;42.632;23.440;2023-11-21T00:58:30;94966.94;;;-1.32;100.00
68179;BME280;69812;42.632;23.440;2023-11-21T01:00:55;94974.50;;;-1.32;100.00
68179;BME280;69812;42.632;23.440;2023-11-21T01:03:21;94950.03;;;-1.49;100.00
68179;BME280;69812;42.632;23.440;2023-11-21T01:05:46;94939.66;;;-1.61;100.00
68179;BME280;69812;42.632;23.440;2023-11-21T01:08:14;94952.97;;;-1.39;100.00
68179;BME280;69812;42.632;23.440;2023-11-21T01:10:40;94936.75;;;-1.52;100.00
68179;BME280;69812;42.632;23.440;2023-11-21T01:13:05;94940.81;;;-1.50;100.00
68179;BME280;69812;42.632;23.440;2023-11-21T01:15:30;94955.47;;;-1.39;100.00
68179;BME280;69812;42.632;23.440;2023-11-21T01:17:56;94939.22;;;-1.51;100.00
68179;BME280;69812;42.632;23.440;2023-11-21T01:20:21;94955.31;;;-1.55;100.00
68179;BME280;69812;42.632;23.440;2023-11-21T01:22:47;94954.97;;;-1.66;100.00
68179;BME280;69812;42.632;23.440;2023-11-21T01:25:14;94940.25;;;-1.75;100.00
68179;BME280;69812;42.632;23.440;2023-11-21T01:27:41;94966.59;;;-1.63;100.00
68179;BME280;69812;42.632;23.440;2023-11-21T01:30:07;94960.56;;;-1.80;100.00
68179;BME280;69812;42.632;23.440;2023-11-21T01:32:33;94971.19;;;-1.73;100.00
68179;BME280;69812;42.632;23.440;2023-11-21T01:34:59;94931.03;;;-1.56;100.00
68179;BME280;69812;42.632;23.440;2023-11-21T01:37:25;94951.41;;;-1.41;100.00
68179;BME280;69812;42.632;23.440;2023-11-21T01:39:55;94958.72;;;-1.16;100.00
68179;BME280;69812;42.632;23.440;2023-11-21T01:42:21;94947.59;;;-1.31;100.00
68179;BME280;69812;42.632;23.440;2023-11-21T01:44:46;94961.44;;;-1.60;100.00
68179;BME280;69812;42.632;23.440;2023-11-21T01:47:13;94972.44;;;-1.83;100.00
68179;BME280;69812;42.632;23.440;2023-11-21T01:49:39;94981.44;;;-1.98;100.00
68179;BME280;69812;42.632;23.440;2023-11-21T01:52:05;94960.28;;;-2.15;100.00
68179;BME280;69812;42.632;23.440;2023-11-21T01:54:31;94959.88;;;-2.26;100.00
68179;BME280;69812;42.632;23.440;2023-11-21T01:57:00;94961.13;;;-2.14;100.00
68179;BME280;69812;42.632;23.440;2023-11-21T01:59:35;94934.69;;;-2.24;100.00
68179;BME280;69812;42.632;23.440;2023-11-21T02:02:05;94938.47;;;-2.14;100.00
68179;BME280;69812;42.632;23.440;2023-11-21T02:04:32;94947.22;;;-2.02;100.00
68179;BME280;69812;42.632;23.440;2023-11-21T02:06:58;94944.75;;;-2.24;100.00
68179;BME280;69812;42.632;23.440;2023-11-21T02:09:27;94956.28;;;-2.41;100.00
68179;BME280;69812;42.632;23.440;2023-11-21T02:11:53;94958.28;;;-2.49;100.00
68179;BME280;69812;42.632;23.440;2023-11-21T02:14:20;94943.38;;;-2.76;100.00
68179;BME280;69812;42.632;23.440;2023-11-21T02:16:50;94958.22;;;-2.70;100.00
68179;BME280;69812;42.632;23.440;2023-11-21T02:19:19;94941.50;;;-2.71;100.00
68179;BME280;69812;42.632;23.440;2023-11-21T02:21:49;94957.94;;;-2.62;100.00
68179;BME280;69812;42.632;23.440;2023-11-21T02:24:15;94950.00;;;-2.51;100.00
68179;BME280;69812;42.632;23.440;2023-11-21T02:26:42;94942.97;;;-2.65;100.00
68179;BME280;69812;42.632;23.440;2023-11-21T02:29:08;94950.63;;;-2.46;100.00
68179;BME280;69812;42.632;23.440;2023-11-21T02:31:37;94946.13;;;-2.38;100.00
68179;BME280;69812;42.632;23.440;2023-11-21T02:34:11;94946.63;;;-2.52;100.00
68179;BME280;69812;42.632;23.440;2023-11-21T02:36:38;94933.66;;;-2.63;100.00
68179;BME280;69812;42.632;23.440;2023-11-21T02:39:04;94940.22;;;-2.59;100.00
68179;BME280;69812;42.632;23.440;2023-11-21T02:41:29;94939.75;;;-2.69;100.00
68179;BME280;69812;42.632;23.440;2023-11-21T02:43:54;94951.84;;;-2.56;100.00
68179;BME280;69812;42.632;23.440;2023-11-21T02:46:20;94958.34;;;-2.51;100.00
68179;BME280;69812;42.632;23.440;2023-11-21T02:48:45;94957.56;;;-2.53;100.00
68179;BME280;69812;42.632;23.440;2023-11-21T02:51:11;94952.16;;;-2.64;100.00
68179;BME280;69812;42.632;23.440;2023-11-21T02:53:36;94957.97;;;-2.63;100.00
68179;BME280;69812;42.632;23.440;2023-11-21T02:56:04;94943.03;;;-2.66;100.00
68179;BME280;69812;42.632;23.440;2023-11-21T02:58:29;94961.56;;;-2.47;100.00
68179;BME280;69812;42.632;23.440;2023-11-21T03:00:55;94938.06;;;-2.46;100.00
68179;BME280;69812;42.632;23.440;2023-11-21T03:03:21;94953.31;;;-1.88;100.00
68179;BME280;69812;42.632;23.440;2023-11-21T03:05:49;94959.41;;;-2.14;100.00
68179;BME280;69812;42.632;23.440;2023-11-21T03:08:14;94935.25;;;-2.18;100.00
68179;BME280;69812;42.632;23.440;2023-11-21T03:10:39;94915.81;;;-2.35;100.00
68179;BME280;69812;42.632;23.440;2023-11-21T03:13:05;94930.47;;;-2.24;100.00
68179;BME280;69812;42.632;23.440;2023-11-21T03:15:30;94934.94;;;-2.31;100.00
68179;BME280;69812;42.632;23.440;2023-11-21T03:17:58;94949.97;;;-2.29;100.00
68179;BME280;69812;42.632;23.440;2023-11-21T03:20:23;94943.72;;;-2.41;100.00
68179;BME280;69812;42.632;23.440;2023-11-21T03:22:49;94939.00;;;-2.49;100.00
68179;BME280;69812;42.632;23.440;2023-11-21T03:25:15;94931.31;;;-2.45;100.00
68179;BME280;69812;42.632;23.440;2023-11-21T03:27:42;94917.38;;;-2.53;100.00
68179;BME280;69812;42.632;23.440;2023-11-21T03:30:09;94944.88;;;-2.50;100.00
68179;BME280;69812;42.632;23.440;2023-11-21T03:32:34;94954.84;;;-2.26;100.00
68179;BME280;69812;42.632;23.440;2023-11-21T03:35:00;94967.78;;;-2.35;100.00
68179;BME280;69812;42.632;23.440;2023-11-21T03:37:27;94953.31;;;-2.51;100.00
68179;BME280;69812;42.632;23.440;2023-11-21T03:39:52;94971.53;;;-2.45;100.00
68179;BME280;69812;42.632;23.440;2023-11-21T03:42:18;94958.38;;;-2.74;100.00
68179;BME280;69812;42.632;23.440;2023-11-21T03:44:43;94959.31;;;-2.77;100.00
68179;BME280;69812;42.632;23.440;2023-11-21T03:47:09;94955.66;;;-2.68;100.00
68179;BME280;69812;42.632;23.440;2023-11-21T03:49:34;94968.97;;;-2.66;100.00
68179;BME280;69812;42.632;23.440;2023-11-21T03:52:00;94942.28;;;-2.69;100.00
68179;BME280;69812;42.632;23.440;2023-11-21T03:54:25;94934.59;;;-2.65;100.00
68179;BME280;69812;42.632;23.440;2023-11-21T03:56:50;94944.41;;;-2.37;100.00
68179;BME280;69812;42.632;23.440;2023-11-21T03:59:17;94922.31;;;-2.29;100.00
68179;BME280;69812;42.632;23.440;2023-11-21T04:01:42;94902.38;;;-2.34;100.00
68179;BME280;69812;42.632;23.440;2023-11-21T04:04:08;94900.00;;;-1.96;100.00
68179;BME280;69812;42.632;23.440;2023-11-21T04:06:33;94931.75;;;-1.73;100.00
68179;BME280;69812;42.632;23.440;2023-11-21T04:08:59;94932.81;;;-1.78;100.00
68179;BME280;69812;42.632;23.440;2023-11-21T04:11:24;94935.16;;;-1.94;100.00
68179;BME280;69812;42.632;23.440;2023-11-21T04:13:50;94930.94;;;-2.14;100.00
68179;BME280;69812;42.632;23.440;2023-11-21T04:16:15;94918.28;;;-2.33;100.00
68179;BME280;69812;42.632;23.440;2023-11-21T04:18:40;94907.13;;;-2.48;100.00
68179;BME280;69812;42.632;23.440;2023-11-21T04:21:06;94931.03;;;-2.38;100.00
68179;BME280;69812;42.632;23.440;2023-11-21T04:23:33;94912.47;;;-2.56;100.00
68179;BME280;69812;42.632;23.440;2023-11-21T04:25:58;94936.75;;;-2.56;100.00
68179;BME280;69812;42.632;23.440;2023-11-21T04:28:24;94922.56;;;-2.57;100.00
68179;BME280;69812;42.632;23.440;2023-11-21T04:30:50;94925.25;;;-2.40;100.00
68179;BME280;69812;42.632;23.440;2023-11-21T04:33:16;94916.03;;;-2.61;100.00
68179;BME280;69812;42.632;23.440;2023-11-21T04:35:41;94935.66;;;-2.49;100.00
68179;BME280;69812;42.632;23.440;2023-11-21T04:38:07;94928.31;;;-2.54;100.00
68179;BME280;69812;42.632;23.440;2023-11-21T04:40:32;94924.31;;;-2.59;100.00
68179;BME280;69812;42.632;23.440;2023-11-21T04:42:58;94930.34;;;-2.63;100.00
68179;BME280;69812;42.632;23.440;2023-11-21T04:45:23;94928.78;;;-2.66;100.00
68179;BME280;69812;42.632;23.440;2023-11-21T04:47:49;94915.06;;;-2.79;100.00
68179;BME280;69812;42.632;23.440;2023-11-21T04:50:14;94907.63;;;-2.82;100.00
68179;BME280;69812;42.632;23.440;2023-11-21T04:52:39;94929.53;;;-2.64;100.00
68179;BME280;69812;42.632;23.440;2023-11-21T04:55:05;94920.47;;;-2.68;100.00
68179;BME280;69812;42.632;23.440;2023-11-21T04:57:35;94942.78;;;-2.38;100.00
68179;BME280;69812;42.632;23.440;2023-11-21T05:00:00;94930.50;;;-2.46;100.00
68179;BME280;69812;42.632;23.440;2023-11-21T05:02:25;94919.88;;;-2.53;100.00
68179;BME280;69812;42.632;23.440;2023-11-21T05:04:51;94917.72;;;-2.62;100.00
68179;BME280;69812;42.632;23.440;2023-11-21T05:07:16;94916.75;;;-2.58;100.00
68179;BME280;69812;42.632;23.440;2023-11-21T05:09:42;94926.63;;;-2.33;100.00
68179;BME280;69812;42.632;23.440;2023-11-21T05:12:11;94921.69;;;-1.93;100.00
68179;BME280;69812;42.632;23.440;2023-11-21T05:14:36;94921.69;;;-2.14;100.00
68179;BME280;69812;42.632;23.440;2023-11-21T05:17:02;94934.63;;;-2.02;100.00
68179;BME280;69812;42.632;23.440;2023-11-21T05:19:29;94910.31;;;-2.02;100.00
68179;BME280;69812;42.632;23.440;2023-11-21T05:21:54;94907.28;;;-1.90;100.00
68179;BME280;69812;42.632;23.440;2023-11-21T05:24:20;94906.03;;;-1.79;100.00
68179;BME280;69812;42.632;23.440;2023-11-21T05:26:45;94909.34;;;-1.79;100.00
68179;BME280;69812;42.632;23.440;2023-11-21T05:29:10;94907.59;;;-1.77;100.00
68179;BME280;69812;42.632;23.440;2023-11-21T05:31:36;94905.53;;;-1.88;100.00
68179;BME280;69812;42.632;23.440;2023-11-21T05:34:03;94932.25;;;-1.46;100.00
68179;BME280;69812;42.632;23.440;2023-11-21T05:36:28;94935.69;;;-1.47;100.00
68179;BME280;69812;42.632;23.440;2023-11-21T05:38:53;94925.25;;;-1.58;100.00
68179;BME280;69812;42.632;23.440;2023-11-21T05:41:19;94949.34;;;-1.52;100.00
68179;BME280;69812;42.632;23.440;2023-11-21T05:43:45;94938.41;;;-1.51;100.00
68179;BME280;69812;42.632;23.440;2023-11-21T05:46:10;94923.91;;;-1.46;100.00
68179;BME280;69812;42.632;23.440;2023-11-21T05:48:36;94926.38;;;-1.26;100.00
68179;BME280;69812;42.632;23.440;2023-11-21T05:51:04;94912.91;;;-1.25;100.00
68179;BME280;69812;42.632;23.440;2023-11-21T05:53:30;94942.66;;;-0.95;100.00
68179;BME280;69812;42.632;23.440;2023-11-21T05:55:55;94927.13;;;-0.86;100.00
68179;BME280;69812;42.632;23.440;2023-11-21T05:58:21;94929.84;;;-0.71;100.00
68179;BME280;69812;42.632;23.440;2023-11-21T06:00:46;94939.22;;;-0.75;100.00
68179;BME280;69812;42.632;23.440;2023-11-21T06:03:12;94947.47;;;-0.71;100.00
68179;BME280;69812;42.632;23.440;2023-11-21T06:05:37;94943.72;;;-0.63;100.00
68179;BME280;69812;42.632;23.440;2023-11-21T06:08:03;94933.81;;;-0.48;100.00
68179;BME280;69812;42.632;23.440;2023-11-21T06:10:29;94930.19;;;-0.43;100.00
68179;BME280;69812;42.632;23.440;2023-11-21T06:12:54;94942.53;;;-0.55;100.00
68179;BME280;69812;42.632;23.440;2023-11-21T06:15:20;94921.59;;;-0.38;100.00
68179;BME280;69812;42.632;23.440;2023-11-21T06:17:47;94939.50;;;-0.08;100.00
68179;BME280;69812;42.632;23.440;2023-11-21T06:20:17;94947.19;;;0.06;100.00
68179;BME280;69812;42.632;23.440;2023-11-21T06:22:44;94949.28;;;0.15;100.00
68179;BME280;69812;42.632;23.440;2023-11-21T06:25:11;94957.94;;;0.45;100.00
68179;BME280;69812;42.632;23.440;2023-11-21T06:27:40;94942.72;;;0.46;100.00
68179;BME280;69812;42.632;23.440;2023-11-21T06:30:07;94948.09;;;0.40;99.98
68179;BME280;69812;42.632;23.440;2023-11-21T06:32:35;94950.09;;;0.67;100.00
68179;BME280;69812;42.632;23.440;2023-11-21T06:35:01;94961.94;;;0.82;98.89
68179;BME280;69812;42.632;23.440;2023-11-21T06:37:28;94957.31;;;0.90;97.09
68179;BME280;69812;42.632;23.440;2023-11-21T06:39:57;94973.25;;;1.40;96.05
68179;BME280;69812;42.632;23.440;2023-11-21T06:42:23;94954.59;;;1.58;95.73
68179;BME280;69812;42.632;23.440;2023-11-21T06:44:49;94951.69;;;1.64;92.44
68179;BME280;69812;42.632;23.440;2023-11-21T06:47:17;94965.66;;;1.72;91.35
68179;BME280;69812;42.632;23.440;2023-11-21T06:49:43;94970.34;;;1.94;90.69
68179;BME280;69812;42.632;23.440;2023-11-21T06:52:09;94967.16;;;2.06;90.97
68179;BME280;69812;42.632;23.440;2023-11-21T06:54:34;94968.56;;;2.26;90.40
68179;BME280;69812;42.632;23.440;2023-11-21T06:57:00;94968.34;;;2.59;89.71
68179;BME280;69812;42.632;23.440;2023-11-21T06:59:26;94977.50;;;3.19;89.32
68179;BME280;69812;42.632;23.440;2023-11-21T07:01:53;94962.84;;;2.96;85.38
68179;BME280;69812;42.632;23.440;2023-11-21T07:04:19;94971.56;;;3.19;87.44
68179;BME280;69812;42.632;23.440;2023-11-21T07:06:45;94960.25;;;3.24;85.89
68179;BME280;69812;42.632;23.440;2023-11-21T07:09:12;94963.94;;;3.47;87.36
68179;BME280;69812;42.632;23.440;2023-11-21T07:11:38;94964.97;;;3.58;88.23
68179;BME280;69812;42.632;23.440;2023-11-21T07:14:04;94968.75;;;3.38;88.92
68179;BME280;69812;42.632;23.440;2023-11-21T07:16:36;94972.94;;;3.39;89.82
68179;BME280;69812;42.632;23.440;2023-11-21T07:19:05;94962.91;;;3.64;87.63
68179;BME280;69812;42.632;23.440;2023-11-21T07:21:36;94957.41;;;3.70;89.99
68179;BME280;69812;42.632;23.440;2023-11-21T07:24:03;94955.41;;;4.03;90.00
68179;BME280;69812;42.632;23.440;2023-11-21T07:26:29;94965.97;;;4.09;88.51
68179;BME280;69812;42.632;23.440;2023-11-21T07:28:55;94924.97;;;3.76;89.66
68179;BME280;69812;42.632;23.440;2023-11-21T07:31:23;94960.63;;;3.60;88.13
68179;BME280;69812;42.632;23.440;2023-11-21T07:33:49;94941.63;;;3.80;90.12
68179;BME280;69812;42.632;23.440;2023-11-21T07:36:15;94959.59;;;4.17;87.94
68179;BME280;69812;42.632;23.440;2023-11-21T07:38:44;94964.69;;;4.17;90.15
68179;BME280;69812;42.632;23.440;2023-11-21T07:41:10;94952.53;;;4.35;89.13
68179;BME280;69812;42.632;23.440;2023-11-21T07:43:36;94945.41;;;4.52;89.99
68179;BME280;69812;42.632;23.440;2023-11-21T07:46:02;94953.13;;;4.25;89.13
68179;BME280;69812;42.632;23.440;2023-11-21T07:48:29;94959.66;;;4.02;88.25
68179;BME280;69812;42.632;23.440;2023-11-21T07:50:54;94936.25;;;3.84;87.05
68179;BME280;69812;42.632;23.440;2023-11-21T07:53:20;94952.41;;;4.23;90.12
68179;BME280;69812;42.632;23.440;2023-11-21T07:55:45;94940.72;;;4.21;88.21
68179;BME280;69812;42.632;23.440;2023-11-21T07:58:12;94939.31;;;4.29;86.22
68179;BME280;69812;42.632;23.440;2023-11-21T08:00:38;94948.16;;;4.37;87.41
68179;BME280;69812;42.632;23.440;2023-11-21T08:03:04;94925.69;;;4.56;88.49
68179;BME280;69812;42.632;23.440;2023-11-21T08:05:31;94930.69;;;4.45;87.74
68179;BME280;69812;42.632;23.440;2023-11-21T08:07:56;94919.09;;;4.66;82.82
68179;BME280;69812;42.632;23.440;2023-11-21T08:10:21;94936.56;;;4.84;84.21
68179;BME280;69812;42.632;23.440;2023-11-21T08:12:47;94935.22;;;4.91;82.06
68179;BME280;69812;42.632;23.440;2023-11-21T08:15:14;94924.44;;;5.00;79.21
68179;BME280;69812;42.632;23.440;2023-11-21T08:17:39;94930.44;;;4.99;79.77
68179;BME280;69812;42.632;23.440;2023-11-21T08:20:05;94929.03;;;4.95;78.92
68179;BME280;69812;42.632;23.440;2023-11-21T08:22:31;94930.84;;;5.06;80.13
68179;BME280;69812;42.632;23.440;2023-11-21T08:24:57;94916.56;;;4.53;80.20
68179;BME280;69812;42.632;23.440;2023-11-21T08:27:23;94937.06;;;4.76;79.90
68179;BME280;69812;42.632;23.440;2023-11-21T08:29:51;94926.34;;;5.09;78.97
68179;BME280;69812;42.632;23.440;2023-11-21T08:32:18;94928.31;;;5.43;78.29
68179;BME280;69812;42.632;23.440;2023-11-21T08:34:43;94931.72;;;5.79;78.08
68179;BME280;69812;42.632;23.440;2023-11-21T08:37:10;94939.22;;;5.69;76.51
68179;BME280;69812;42.632;23.440;2023-11-21T08:39:36;94936.47;;;5.83;76.63
68179;BME280;69812;42.632;23.440;2023-11-21T08:42:03;94924.59;;;6.08;75.15
68179;BME280;69812;42.632;23.440;2023-11-21T08:44:28;94929.38;;;6.35;72.22
68179;BME280;69812;42.632;23.440;2023-11-21T08:46:55;94922.94;;;6.07;71.97
68179;BME280;69812;42.632;23.440;2023-11-21T08:49:21;94938.66;;;6.01;72.16
68179;BME280;69812;42.632;23.440;2023-11-21T08:51:46;94943.50;;;6.16;73.59
68179;BME280;69812;42.632;23.440;2023-11-21T08:54:11;94934.44;;;6.12;73.56
68179;BME280;69812;42.632;23.440;2023-11-21T08:56:37;94932.66;;;6.02;74.62
68179;BME280;69812;42.632;23.440;2023-11-21T08:59:02;94926.22;;;6.20;74.26
68179;BME280;69812;42.632;23.440;2023-11-21T09:01:29;94917.31;;;6.26;73.86
68179;BME280;69812;42.632;23.440;2023-11-21T09:03:57;94922.75;;;6.21;73.82
68179;BME280;69812;42.632;23.440;2023-11-21T09:06:23;94911.81;;;6.54;73.93
68179;BME280;69812;42.632;23.440;2023-11-21T09:08:50;94909.50;;;6.63;73.05
68179;BME280;69812;42.632;23.440;2023-11-21T09:11:15;94907.56;;;6.66;72.29
68179;BME280;69812;42.632;23.440;2023-11-21T09:13:41;94877.06;;;6.76;72.57
68179;BME280;69812;42.632;23.440;2023-11-21T09:16:06;94881.78;;;7.14;72.87
68179;BME280;69812;42.632;23.440;2023-11-21T09:18:32;94861.31;;;7.37;69.77
68179;BME280;69812;42.632;23.440;2023-11-21T09:20:57;94848.88;;;6.89;70.21
68179;BME280;69812;42.632;23.440;2023-11-21T09:23:24;94844.81;;;6.97;69.92
68179;BME280;69812;42.632;23.440;2023-11-21T09:25:49;94818.56;;;7.07;68.40
68179;BME280;69812;42.632;23.440;2023-11-21T09:28:15;94846.81;;;7.37;67.58
68179;BME280;69812;42.632;23.440;2023-11-21T09:30:42;94846.19;;;7.45;66.29
68179;BME280;69812;42.632;23.440;2023-11-21T09:33:08;94832.75;;;7.43;66.98
68179;BME280;69812;42.632;23.440;2023-11-21T09:35:38;94800.00;;;7.16;68.11
68179;BME280;69812;42.632;23.440;2023-11-21T09:38:04;94815.88;;;7.31;67.80
68179;BME280;69812;42.632;23.440;2023-11-21T09:40:36;94801.03;;;7.57;66.48
68179;BME280;69812;42.632;23.440;2023-11-21T09:43:09;94803.41;;;7.37;68.31
68179;BME280;69812;42.632;23.440;2023-11-21T09:45:47;94806.16;;;7.46;67.48
68179;BME280;69812;42.632;23.440;2023-11-21T09:48:14;94791.56;;;7.36;69.19
68179;BME280;69812;42.632;23.440;2023-11-21T09:50:42;94767.09;;;7.34;68.90
68179;BME280;69812;42.632;23.440;2023-11-21T09:53:18;94787.19;;;7.80;68.88
68179;BME280;69812;42.632;23.440;2023-11-21T09:55:47;94788.59;;;7.52;69.34
68179;BME280;69812;42.632;23.440;2023-11-21T09:58:14;94779.97;;;7.65;68.45
68179;BME280;69812;42.632;23.440;2023-11-21T10:00:44;94760.97;;;7.57;67.51
68179;BME280;69812;42.632;23.440;2023-11-21T10:03:11;94759.59;;;7.53;66.58
68179;BME280;69812;42.632;23.440;2023-11-21T10:05:37;94747.31;;;7.68;65.71
68179;BME280;69812;42.632;23.440;2023-11-21T10:08:10;94746.13;;;7.51;66.44
68179;BME280;69812;42.632;23.440;2023-11-21T10:10:37;94740.88;;;7.74;66.34
68179;BME280;69812;42.632;23.440;2023-11-21T10:13:05;94732.34;;;7.85;65.65
68179;BME280;69812;42.632;23.440;2023-11-21T10:15:33;94735.94;;;8.34;64.38
68179;BME280;69812;42.632;23.440;2023-11-21T10:18:02;94737.91;;;8.51;63.65
68179;BME280;69812;42.632;23.440;2023-11-21T10:20:29;94739.03;;;8.68;63.38
68179;BME280;69812;42.632;23.440;2023-11-21T10:22:54;94726.94;;;8.70;62.06
68179;BME280;69812;42.632;23.440;2023-11-21T10:25:21;94716.56;;;8.81;62.44
68179;BME280;69812;42.632;23.440;2023-11-21T10:27:48;94730.81;;;8.64;61.92
68179;BME280;69812;42.632;23.440;2023-11-21T10:30:17;94718.59;;;8.37;61.91
68179;BME280;69812;42.632;23.440;2023-11-21T10:32:43;94712.78;;;8.66;61.33
68179;BME280;69812;42.632;23.440;2023-11-21T10:35:09;94715.00;;;8.50;62.46
68179;BME280;69812;42.632;23.440;2023-11-21T10:37:40;94720.97;;;8.60;62.02
68179;BME280;69812;42.632;23.440;2023-11-21T10:40:07;94725.06;;;8.92;62.18
68179;BME280;69812;42.632;23.440;2023-11-21T10:42:33;94717.53;;;9.19;61.91
68179;BME280;69812;42.632;23.440;2023-11-21T10:44:58;94712.69;;;8.87;62.76
68179;BME280;69812;42.632;23.440;2023-11-21T10:47:26;94695.31;;;9.00;62.77
68179;BME280;69812;42.632;23.440;2023-11-21T10:49:51;94674.16;;;8.98;63.12
68179;BME280;69812;42.632;23.440;2023-11-21T10:52:19;94702.56;;;9.34;59.99
68179;BME280;69812;42.632;23.440;2023-11-21T10:54:45;94676.09;;;9.73;59.71
68179;BME280;69812;42.632;23.440;2023-11-21T10:57:13;94680.22;;;9.93;58.92
68179;BME280;69812;42.632;23.440;2023-11-21T10:59:46;94681.28;;;10.28;58.28
68179;BME280;69812;42.632;23.440;2023-11-21T11:02:24;94694.31;;;10.07;58.95
68179;BME280;69812;42.632;23.440;2023-11-21T11:04:53;94693.66;;;9.95;60.61
68179;BME280;69812;42.632;23.440;2023-11-21T11:07:21;94664.44;;;9.88;58.82
68179;BME280;69812;42.632;23.440;2023-11-21T11:09:49;94678.69;;;10.00;58.87
68179;BME280;69812;42.632;23.440;2023-11-21T11:12:15;94671.66;;;10.02;58.83
68179;BME280;69812;42.632;23.440;2023-11-21T11:14:42;94661.84;;;9.98;59.34
68179;BME280;69812;42.632;23.440;2023-11-21T11:17:10;94669.88;;;9.75;59.07
68179;BME280;69812;42.632;23.440;2023-11-21T11:19:36;94671.25;;;10.07;58.63
68179;BME280;69812;42.632;23.440;2023-11-21T11:22:20;94672.00;;;9.80;59.75
68179;BME280;69812;42.632;23.440;2023-11-21T11:33:29;94643.09;;;10.25;59.03
68179;BME280;69812;42.632;23.440;2023-11-21T11:38:33;94632.59;;;10.46;58.17
68179;BME280;69812;42.632;23.440;2023-11-21T11:41:02;94626.81;;;10.80;56.08
68179;BME280;69812;42.632;23.440;2023-11-21T11:43:29;94620.44;;;10.84;56.84
68179;BME280;69812;42.632;23.440;2023-11-21T11:45:58;94609.25;;;10.67;56.34
68179;BME280;69812;42.632;23.440;2023-11-21T11:48:24;94603.38;;;10.39;56.68
68179;BME280;69812;42.632;23.440;2023-11-21T11:51:12;94606.34;;;10.34;57.44
68179;BME280;69812;42.632;23.440;2023-11-21T11:53:43;94627.31;;;9.92;58.99
68179;BME280;69812;42.632;23.440;2023-11-21T11:58:49;94620.31;;;9.57;60.19
68179;BME280;69812;42.632;23.440;2023-11-21T12:01:19;94638.81;;;9.31;60.74
68179;BME280;69812;42.632;23.440;2023-11-21T12:06:41;94608.28;;;8.71;61.81
68179;BME280;69812;42.632;23.440;2023-11-21T12:09:06;94629.84;;;8.78;63.36
68179;BME280;69812;42.632;23.440;2023-11-21T12:11:32;94616.09;;;8.60;64.39
68179;BME280;69812;42.632;23.440;2023-11-21T12:14:01;94638.56;;;8.76;65.70
68179;BME280;69812;42.632;23.440;2023-11-21T12:16:27;94636.44;;;8.61;65.06
68179;BME280;69812;42.632;23.440;2023-11-21T12:18:53;94620.06;;;8.33;65.78
68179;BME280;69812;42.632;23.440;2023-11-21T12:21:20;94649.88;;;8.44;65.60
68179;BME280;69812;42.632;23.440;2023-11-21T12:23:45;94654.75;;;8.26;67.98
68179;BME280;69812;42.632;23.440;2023-11-21T12:26:13;94643.59;;;8.27;69.57
68179;BME280;69812;42.632;23.440;2023-11-21T12:28:38;94640.38;;;8.35;70.19
68179;BME280;69812;42.632;23.440;2023-11-21T12:31:04;94603.47;;;8.08;68.47
68179;BME280;69812;42.632;23.440;2023-11-21T12:33:32;94616.50;;;8.05;67.35
68179;BME280;69812;42.632;23.440;2023-11-21T12:35:58;94633.88;;;8.11;68.61
68179;BME280;69812;42.632;23.440;2023-11-21T12:38:24;94649.53;;;8.28;68.26
68179;BME280;69812;42.632;23.440;2023-11-21T12:40:50;94654.63;;;8.28;69.00
68179;BME280;69812;42.632;23.440;2023-11-21T12:43:16;94647.88;;;8.17;68.94
68179;BME280;69812;42.632;23.440;2023-11-21T12:45:43;94652.19;;;8.16;70.78
68179;BME280;69812;42.632;23.440;2023-11-21T12:48:09;94656.13;;;8.30;69.33
68179;BME280;69812;42.632;23.440;2023-11-21T12:50:37;94641.88;;;8.37;69.18
68179;BME280;69812;42.632;23.440;2023-11-21T12:53:09;94625.22;;;8.43;68.91
68179;BME280;69812;42.632;23.440;2023-11-21T12:55:35;94618.91;;;8.07;69.22
68179;BME280;69812;42.632;23.440;2023-11-21T12:58:04;94634.41;;;8.15;70.30
68179;BME280;69812;42.632;23.440;2023-11-21T13:03:09;94615.22;;;8.30;69.02
68179;BME280;69812;42.632;23.440;2023-11-21T13:05:40;94612.38;;;8.23;69.18
68179;BME280;69812;42.632;23.440;2023-11-21T13:08:10;94613.69;;;8.08;70.97
68179;BME280;69812;42.632;23.440;2023-11-21T13:10:40;94613.56;;;8.10;70.57
68179;BME280;69812;42.632;23.440;2023-11-21T13:13:08;94606.13;;;8.07;70.51
68179;BME280;69812;42.632;23.440;2023-11-21T13:15:39;94599.31;;;8.07;69.10
68179;BME280;69812;42.632;23.440;2023-11-21T13:18:06;94588.13;;;7.98;68.70
68179;BME280;69812;42.632;23.440;2023-11-21T13:20:32;94591.44;;;7.89;69.47